Merion Station, PA

11:52 AM EST on March 06, 2015 (GMT -0500)
Philadelphia International | Change Station
CLOSE
Current Station
Airport
Location: Philadelphia,
Elevation: 26 ft
Nearby Weather Stations

Elev 26 ft 39.87 °N, 75.23 °W | Updated 58 minutes ago

Clear
Clear
19 °F
Feels Like 10 °F
N
7
Wind Variable Wind from NNW

Today
High -- | Low -- °F
--% Chance of Precip.
Yesterday
High -- | Low -- °F
Precip. -- in
6:27 AM 5:58 PM
Full, 99% visible
Pressure 30.58 in
Visibility 10.0 miles
Clouds Clear
Windchill 10 °F
Dew Point 6 °F
Humidity 57%
Rainfall 0.00 in
Snow Depth Not available.
UV 5 out of 12
Pollen .60 out of 12
Air Quality Not available.
Flu Activity Not available.
METAR KPHL 061554Z 34006KT 10SM CLR M07/M14 A3058 RMK AO2 SLP354 T10721144

More Conditions Fewer Conditions

Pressure 30.58 in
Visibility 10.0 miles
Clouds Clear
Windchill 10 °F
Dew Point 6 °F
Humidity 57%
Rainfall 0.00 in
Snow Depth Not available.
UV 5 out of 12
Pollen .60 out of 12
Air Quality Not available.
Flu Activity Not available.
METAR KPHL 061554Z 34006KT 10SM CLR M07/M14 A3058 RMK AO2 SLP354 T10721144

More Conditions Fewer Conditions

10-Day Weather Forecast

Almanac

Astronomy

Mar. 06, 2015 Rise Set
Actual Time
Civil Twilight
Nautical Twilight
Astronomical Twilight
Moon
Length of Visible Light
Length of Day
Tomorrow will be .
, % of the Moon is Illuminated

Today's Extremes

State Highs State Lows

Community

WunderPhotos

Upload Photos

1,803,336 photos uploaded!

WunderBlogs® & News

Nearby

Air Quality

  Air Quality AQ Index Pollutant
Not available.

Snow Depth

Station Depth Elevation

Earthquake Activity

City Distance Mag. Time & Date
Minimum magnitude displayed is 2.5.

Coastal Water Temperatures

Place Temperature

Nearby Weather Stations